Time;durP1;ratioP1;P1;durP2;ratioP2;P2;SDS_P1;SDS_P2;PMS_P1;PMS_P2;Temp;Humidity;BMP_temperature;BMP_pressure;BME280_temperature;BME280_humidity;BME280_pressure;Samples;Min_cycle;Max_cycle;Signal;HPM_P1;HPM_P2
2022/05/06 00:00:19;;;;;;;28.02;14.75;;;9.40;99.90;;;;;;5091281;28;20044;-72
2022/05/06 00:02:45;;;;;;;25.40;14.90;;;9.40;99.90;;;;;;5073191;28;20499;-72
2022/05/06 00:05:13;;;;;;;26.50;15.07;;;9.40;99.90;;;;;;5089748;28;20047;-72
2022/05/06 00:07:39;;;;;;;28.52;15.95;;;9.30;99.90;;;;;;5074435;28;20038;-72
2022/05/06 00:10:06;;;;;;;28.13;16.08;;;9.30;99.90;;;;;;5089577;28;20042;-72
2022/05/06 00:12:35;;;;;;;26.70;16.10;;;9.30;99.90;;;;;;5073086;28;20114;-72
2022/05/06 00:15:01;;;;;;;29.00;15.57;;;9.20;99.90;;;;;;5089399;27;20616;-72
2022/05/06 00:17:27;;;;;;;25.73;15.40;;;9.20;99.90;;;;;;5056012;28;20043;-72
2022/05/06 00:19:53;;;;;;;24.00;15.52;;;9.10;99.90;;;;;;5089473;28;20100;-72
2022/05/06 00:22:18;;;;;;;25.70;15.52;;;9.10;99.90;;;;;;5054234;28;20048;-72
2022/05/06 00:24:44;;;;;;;24.38;14.75;;;9.10;99.90;;;;;;5091337;28;20032;-72
2022/05/06 00:27:10;;;;;;;27.70;16.00;;;9.00;99.90;;;;;;5088397;28;20027;-72
2022/05/06 00:29:36;;;;;;;25.27;16.00;;;9.00;99.90;;;;;;5058246;28;20051;-73
2022/05/06 00:32:02;;;;;;;30.02;16.10;;;9.00;99.90;;;;;;5054854;28;20442;-72
2022/05/06 00:34:28;;;;;;;27.85;16.00;;;8.90;99.90;;;;;;5058546;28;20039;-72
2022/05/06 00:36:56;;;;;;;30.33;17.48;;;8.90;99.90;;;;;;5072801;28;20370;-72
2022/05/06 00:39:22;;;;;;;32.13;17.02;;;8.90;99.90;;;;;;5109189;28;20085;-72
2022/05/06 00:41:53;;;;;;;30.85;15.68;;;8.90;99.90;;;;;;5093863;28;20401;-72
2022/05/06 00:44:20;;;;;;;27.70;15.63;;;8.80;99.90;;;;;;5093184;28;20384;-72
2022/05/06 00:46:46;;;;;;;30.67;15.38;;;8.80;99.90;;;;;;5093043;28;20043;-72
2022/05/06 00:49:14;;;;;;;31.67;16.00;;;8.80;99.90;;;;;;5092977;28;20450;-72
2022/05/06 00:51:42;;;;;;;29.05;16.08;;;8.70;99.90;;;;;;5058306;28;20040;-73
2022/05/06 00:54:17;;;;;;;26.63;16.20;;;8.70;99.90;;;;;;5088483;28;20115;-72
2022/05/06 00:56:44;;;;;;;31.75;16.40;;;8.70;99.90;;;;;;5066795;28;20184;-72
2022/05/06 00:59:09;;;;;;;28.63;15.98;;;8.60;99.90;;;;;;5071787;28;20134;-72
2022/05/06 01:01:36;;;;;;;30.17;16.25;;;8.60;99.90;;;;;;5071523;28;20131;-72
2022/05/06 01:04:05;;;;;;;27.92;16.27;;;8.50;99.90;;;;;;5070331;28;20096;-72
2022/05/06 01:06:31;;;;;;;29.52;16.50;;;8.50;99.90;;;;;;5073239;28;20115;-73
2022/05/06 01:09:00;;;;;;;32.17;17.20;;;8.50;99.90;;;;;;5088093;28;20400;-72
2022/05/06 01:11:27;;;;;;;27.05;16.58;;;8.50;99.90;;;;;;5055534;28;20089;-72
2022/05/06 01:13:55;;;;;;;29.92;16.20;;;8.50;99.90;;;;;;5089501;28;20435;-72
2022/05/06 01:16:21;;;;;;;28.52;16.70;;;8.50;99.90;;;;;;5040128;28;20048;-72
2022/05/06 01:18:51;;;;;;;25.65;15.48;;;8.40;99.90;;;;;;5087311;28;20049;-72
2022/05/06 01:21:26;;;;;;;30.45;16.52;;;8.40;99.90;;;;;;5068595;28;20039;-72
2022/05/06 01:23:51;;;;;;;28.25;16.38;;;8.40;99.90;;;;;;5086170;28;20074;-72
2022/05/06 01:26:17;;;;;;;28.63;16.42;;;8.30;99.90;;;;;;5086177;28;20098;-72
2022/05/06 01:28:49;;;;;;;30.45;17.67;;;8.30;99.90;;;;;;5071582;28;20440;-72
2022/05/06 01:31:21;;;;;;;30.52;18.15;;;8.30;99.90;;;;;;5086575;28;20122;-72
2022/05/06 01:33:54;;;;;;;30.73;17.33;;;8.20;99.90;;;;;;5086001;28;20527;-72
2022/05/06 01:36:25;;;;;;;32.78;16.73;;;8.20;99.90;;;;;;5083745;28;20035;-71
2022/05/06 01:38:59;;;;;;;26.35;16.25;;;8.10;99.90;;;;;;5068729;28;20043;-72
2022/05/06 01:41:27;;;;;;;25.25;15.38;;;8.10;99.90;;;;;;5086477;28;20489;-72
2022/05/06 01:44:03;;;;;;;29.20;15.55;;;8.00;99.90;;;;;;5072517;28;20043;-72
2022/05/06 01:46:31;;;;;;;26.55;15.18;;;8.00;99.90;;;;;;5071623;28;20035;-72
2022/05/06 01:48:57;;;;;;;27.13;16.05;;;8.00;99.90;;;;;;5088477;28;20028;-72
2022/05/06 01:51:23;;;;;;;32.25;17.02;;;8.00;99.90;;;;;;5087264;28;20617;-72
2022/05/06 01:53:51;;;;;;;31.88;16.75;;;8.00;99.90;;;;;;5072137;28;20039;-72
2022/05/06 01:56:21;;;;;;;32.22;17.05;;;7.90;99.90;;;;;;5070450;28;20082;-72
2022/05/06 01:58:48;;;;;;;30.40;18.50;;;7.90;99.90;;;;;;5055533;28;20389;-72
2022/05/06 02:01:14;;;;;;;31.65;18.60;;;7.80;99.90;;;;;;5070945;28;20048;-72
2022/05/06 02:06:26;;;;;;;34.38;18.55;;;7.70;99.90;;;;;;5054178;28;20046;-72
2022/05/06 02:08:52;;;;;;;35.28;18.45;;;7.60;99.90;;;;;;5072118;28;20130;-72
2022/05/06 02:11:19;;;;;;;31.33;18.00;;;7.60;99.90;;;;;;5070216;28;20112;-72
2022/05/06 02:13:46;;;;;;;27.98;15.70;;;7.60;99.90;;;;;;5085371;28;20070;-72
2022/05/06 02:16:11;;;;;;;28.48;16.38;;;7.60;99.90;;;;;;5054575;28;20085;-72
2022/05/06 02:18:37;;;;;;;29.40;16.80;;;7.60;99.90;;;;;;5087607;28;20036;-72
2022/05/06 02:21:03;;;;;;;34.55;16.92;;;7.50;99.90;;;;;;5067761;28;20047;-72
2022/05/06 02:23:29;;;;;;;28.98;17.33;;;7.50;99.90;;;;;;5070305;28;20031;-71
2022/05/06 02:25:56;;;;;;;30.08;16.63;;;7.50;99.90;;;;;;5086280;28;20039;-72
2022/05/06 02:28:22;;;;;;;32.42;17.45;;;7.50;99.90;;;;;;5053620;28;20036;-71
2022/05/06 02:33:36;;;;;;;34.58;16.73;;;7.50;99.90;;;;;;5087316;28;20035;-71
2022/05/06 02:36:02;;;;;;;30.17;17.05;;;7.40;99.90;;;;;;5067666;28;20040;-71
2022/05/06 02:38:29;;;;;;;31.50;16.23;;;7.40;99.90;;;;;;5072313;28;20089;-72
2022/05/06 02:40:55;;;;;;;27.65;15.75;;;7.40;99.90;;;;;;5085753;28;20393;-71
2022/05/06 02:43:21;;;;;;;26.73;16.40;;;7.40;99.90;;;;;;5087000;28;20038;-71
2022/05/06 02:45:50;;;;;;;26.83;16.38;;;7.40;99.90;;;;;;5070724;28;20031;-72
2022/05/06 02:48:15;;;;;;;30.73;18.00;;;7.40;99.90;;;;;;5067091;28;20461;-72
2022/05/06 02:50:42;;;;;;;29.45;16.02;;;7.40;99.90;;;;;;5105427;28;20040;-72
2022/05/06 02:53:08;;;;;;;28.20;16.17;;;7.30;99.90;;;;;;5085400;28;20508;-72
2022/05/06 02:55:34;;;;;;;29.95;16.65;;;7.30;99.90;;;;;;5087442;28;20088;-72
2022/05/06 02:58:01;;;;;;;30.30;17.00;;;7.30;99.90;;;;;;5069410;28;20085;-72
2022/05/06 03:00:28;;;;;;;31.38;17.10;;;7.30;99.90;;;;;;5087934;28;20058;-72
2022/05/06 03:03:00;;;;;;;33.03;18.35;;;7.30;99.90;;;;;;5071154;28;20405;-72
2022/05/06 03:05:26;;;;;;;32.38;17.08;;;7.20;99.90;;;;;;5070419;28;20038;-72
2022/05/06 03:07:52;;;;;;;30.80;16.85;;;7.20;99.90;;;;;;5067589;28;20040;-71
2022/05/06 03:10:18;;;;;;;33.20;18.00;;;7.20;99.90;;;;;;5085913;28;20031;-72
2022/05/06 03:12:44;;;;;;;29.85;16.88;;;7.20;99.90;;;;;;5064381;28;20404;-72
2022/05/06 03:15:10;;;;;;;33.00;18.27;;;7.10;99.90;;;;;;5052154;28;20039;-72
2022/05/06 03:17:36;;;;;;;31.20;16.40;;;7.10;99.90;;;;;;5068640;28;21384;-72
2022/05/06 03:20:08;;;;;;;29.42;16.45;;;7.10;99.90;;;;;;5060432;28;20050;-71
2022/05/06 03:22:55;;;;;;;32.47;17.98;;;7.10;99.90;;;;;;5069682;28;20409;-72
2022/05/06 03:25:24;;;;;;;30.35;16.63;;;7.10;99.90;;;;;;5086540;28;20119;-72
2022/05/06 03:28:11;;;;;;;30.00;16.92;;;7.00;99.90;;;;;;5084318;28;20036;-72
2022/05/06 03:30:49;;;;;;;35.25;18.45;;;7.00;99.90;;;;;;5068750;28;20492;-71
2022/05/06 03:33:19;;;;;;;39.30;18.88;;;6.90;99.90;;;;;;5081984;28;20552;-72
2022/05/06 03:35:45;;;;;;;35.22;17.88;;;6.90;99.90;;;;;;5087165;28;20028;-72
2022/05/06 03:38:11;;;;;;;34.70;18.58;;;6.90;99.90;;;;;;5068408;28;20412;-72
2022/05/06 03:40:37;;;;;;;28.15;16.42;;;6.80;99.90;;;;;;5085901;28;20125;-71
2022/05/06 03:43:03;;;;;;;37.45;18.65;;;6.90;99.90;;;;;;5069545;28;20035;-71
2022/05/06 03:45:29;;;;;;;34.55;18.48;;;6.80;99.90;;;;;;5070453;28;20047;-72
2022/05/06 03:47:57;;;;;;;32.83;18.13;;;6.80;99.90;;;;;;5085870;28;20036;-71
2022/05/06 03:53:10;;;;;;;36.42;18.05;;;6.70;99.90;;;;;;5084495;28;20419;-72
2022/05/06 03:55:37;;;;;;;35.60;18.55;;;6.70;99.90;;;;;;5086713;28;20093;-74
2022/05/06 03:58:03;;;;;;;32.00;18.63;;;6.60;99.90;;;;;;5068492;28;20068;-74
2022/05/06 04:00:29;;;;;;;33.55;17.75;;;6.60;99.90;;;;;;5068174;28;20043;-73
2022/05/06 04:02:56;;;;;;;32.13;18.27;;;6.60;99.90;;;;;;5088362;28;20043;-73
2022/05/06 04:05:22;;;;;;;34.58;17.50;;;6.50;99.90;;;;;;5074116;28;20031;-73
2022/05/06 04:07:48;;;;;;;35.92;17.52;;;6.50;99.90;;;;;;5089169;28;20061;-74
2022/05/06 04:10:13;;;;;;;30.90;16.95;;;6.60;99.90;;;;;;5090462;28;20027;-71
2022/05/06 04:12:42;;;;;;;42.90;19.85;;;6.50;99.90;;;;;;5070343;28;20032;-71
2022/05/06 04:15:08;;;;;;;32.08;16.90;;;6.50;99.90;;;;;;5090979;28;20048;-71
2022/05/06 04:17:34;;;;;;;39.30;17.90;;;6.50;99.90;;;;;;5089076;28;20031;-71
2022/05/06 04:25:32;;;;;;;33.80;18.05;;;6.70;99.90;;;;;;5064904;28;20123;-72
2022/05/06 04:27:58;;;;;;;34.63;20.50;;;6.70;99.90;;;;;;5066850;28;20051;-72
2022/05/06 04:30:24;;;;;;;32.05;18.13;;;6.70;99.90;;;;;;5090854;28;20046;-73
2022/05/06 04:32:50;;;;;;;38.65;20.80;;;6.70;99.90;;;;;;5054480;28;20036;-72
2022/05/06 04:35:16;;;;;;;34.15;20.27;;;6.70;99.90;;;;;;5089116;28;20063;-72
2022/05/06 04:37:45;;;;;;;37.67;19.27;;;6.70;99.90;;;;;;5074063;28;20070;-72
2022/05/06 04:40:16;;;;;;;33.80;18.23;;;6.70;99.90;;;;;;5058102;28;20066;-72
2022/05/06 04:42:45;;;;;;;37.90;19.17;;;6.80;99.90;;;;;;5072836;28;20869;-73
2022/05/06 04:45:11;;;;;;;29.67;17.45;;;6.80;99.90;;;;;;5071921;28;20081;-72
2022/05/06 04:47:37;;;;;;;32.33;18.30;;;6.80;99.90;;;;;;5069867;28;20434;-72
2022/05/06 04:50:04;;;;;;;35.22;18.88;;;6.80;99.90;;;;;;5054796;28;20116;-72
2022/05/06 04:52:36;;;;;;;38.30;18.95;;;6.80;99.90;;;;;;5089255;28;20036;-72
2022/05/06 04:55:05;;;;;;;35.22;19.90;;;6.90;99.90;;;;;;5076293;28;20504;-72
2022/05/06 04:57:31;;;;;;;31.38;16.80;;;6.90;99.90;;;;;;5096301;28;20176;-72
2022/05/06 05:00:02;;;;;;;35.75;19.08;;;7.00;99.90;;;;;;5092198;28;20142;-72
2022/05/06 05:02:29;;;;;;;32.85;18.05;;;7.00;99.90;;;;;;5074591;28;20505;-72
2022/05/06 05:04:58;;;;;;;35.60;20.65;;;7.10;99.90;;;;;;5092111;28;20043;-72
2022/05/06 05:07:30;;;;;;;38.15;21.35;;;7.10;99.90;;;;;;5058734;28;20433;-72
2022/05/06 05:10:00;;;;;;;35.47;19.88;;;7.20;99.90;;;;;;5075249;28;20051;-72
2022/05/06 05:12:31;;;;;;;36.83;20.05;;;7.20;99.90;;;;;;5091706;28;20500;-72
2022/05/06 05:15:02;;;;;;;34.35;19.58;;;7.30;99.90;;;;;;5092009;28;20031;-72
2022/05/06 05:17:28;;;;;;;43.08;19.60;;;7.30;99.90;;;;;;5075121;28;20040;-73
2022/05/06 05:19:54;;;;;;;36.33;19.50;;;7.30;99.90;;;;;;5073411;28;20108;-73
2022/05/06 05:22:23;;;;;;;42.60;21.85;;;7.30;99.90;;;;;;5067458;28;20132;-73
2022/05/06 05:24:49;;;;;;;40.85;20.27;;;7.40;99.90;;;;;;5105691;28;20864;-73
2022/05/06 05:27:15;;;;;;;36.78;20.85;;;7.40;99.90;;;;;;5083739;28;20035;-73
2022/05/06 05:29:42;;;;;;;41.05;22.30;;;7.50;99.90;;;;;;5066434;28;20040;-73
2022/05/06 05:32:08;;;;;;;39.08;21.33;;;7.60;99.90;;;;;;5069726;28;20032;-73
2022/05/06 05:34:34;;;;;;;50.33;22.90;;;7.70;99.90;;;;;;5070675;28;20588;-73
2022/05/06 05:37:03;;;;;;;46.92;22.95;;;7.80;99.90;;;;;;5087203;28;20477;-74
2022/05/06 05:39:31;;;;;;;43.53;22.55;;;7.90;99.90;;;;;;5054975;28;20117;-73
2022/05/06 05:42:00;;;;;;;43.17;24.55;;;8.00;99.90;;;;;;5068042;28;20575;-73
2022/05/06 05:49:57;;;;;;;52.88;24.63;;;8.40;99.90;;;;;;5087664;28;20085;-73
2022/05/06 05:52:25;;;;;;;46.35;25.33;;;8.50;99.90;;;;;;5086729;28;20051;-74
2022/05/06 05:54:54;;;;;;;47.70;23.58;;;8.60;99.90;;;;;;5087339;28;20080;-73
2022/05/06 05:57:23;;;;;;;44.50;23.85;;;8.80;99.90;;;;;;5061839;28;20044;-74
2022/05/06 05:59:49;;;;;;;39.13;22.60;;;8.90;99.90;;;;;;5018262;28;1494302;-74
2022/05/06 06:02:21;;;;;;;37.00;22.02;;;9.00;99.90;;;;;;5071286;28;20054;-74
2022/05/06 06:04:47;;;;;;;40.55;22.60;;;9.10;99.90;;;;;;5068840;28;20047;-74
2022/05/06 06:07:18;;;;;;;37.75;20.73;;;9.20;99.90;;;;;;5105721;28;20469;-74
2022/05/06 06:09:44;;;;;;;37.15;20.90;;;9.30;99.90;;;;;;5072142;28;20092;-74
2022/05/06 06:12:10;;;;;;;34.63;20.65;;;9.40;99.90;;;;;;5075712;28;20040;-74
2022/05/06 06:14:36;;;;;;;35.25;21.02;;;9.50;99.90;;;;;;5056656;28;20031;-74
2022/05/06 06:17:02;;;;;;;32.20;20.63;;;9.50;99.90;;;;;;5091165;28;20087;-74
2022/05/06 06:19:28;;;;;;;34.70;19.52;;;9.60;99.90;;;;;;5077025;28;20546;-73
2022/05/06 06:21:59;;;;;;;35.13;19.90;;;9.70;99.90;;;;;;5074000;28;20028;-74
2022/05/06 06:24:26;;;;;;;36.13;20.70;;;9.80;99.90;;;;;;5088312;28;20241;-73
2022/05/06 06:26:52;;;;;;;33.10;20.02;;;9.90;99.90;;;;;;5086490;28;20044;-74
2022/05/06 06:29:18;;;;;;;37.63;18.80;;;10.10;99.90;;;;;;5055406;28;20084;-73
2022/05/06 06:31:44;;;;;;;36.75;19.88;;;10.20;99.90;;;;;;5068759;28;20035;-74
2022/05/06 06:34:10;;;;;;;38.08;20.02;;;10.30;99.90;;;;;;5067074;28;20043;-74
2022/05/06 06:36:38;;;;;;;37.33;20.90;;;10.50;99.90;;;;;;5072474;28;20122;-74
2022/05/06 06:39:04;;;;;;;37.47;20.75;;;10.70;99.90;;;;;;5072396;28;20489;-74
2022/05/06 06:41:32;;;;;;;40.35;20.25;;;10.80;99.90;;;;;;5066894;28;20042;-74
2022/05/06 06:43:57;;;;;;;43.03;20.20;;;11.00;99.90;;;;;;5087409;28;20119;-74
2022/05/06 06:46:23;;;;;;;33.45;20.08;;;11.20;99.90;;;;;;5068555;28;20122;-74
2022/05/06 06:48:49;;;;;;;38.45;20.77;;;11.40;99.90;;;;;;5086689;28;20149;-74
2022/05/06 06:51:18;;;;;;;33.65;19.27;;;11.50;99.90;;;;;;5067709;28;20110;-75
2022/05/06 06:54:05;;;;;;;38.72;20.77;;;11.60;99.90;;;;;;5054318;28;20039;-74
2022/05/06 06:56:30;;;;;;;36.50;19.70;;;11.80;99.90;;;;;;5054571;28;20053;-75
2022/05/06 06:59:03;;;;;;;33.55;20.25;;;12.00;99.90;;;;;;5090411;28;20035;-74
2022/05/06 07:01:32;;;;;;;34.15;19.80;;;12.10;99.90;;;;;;5073223;28;20052;-74
2022/05/06 07:04:01;;;;;;;38.85;21.63;;;12.30;99.90;;;;;;5075235;28;20044;-75
2022/05/06 07:11:58;;;;;;;44.65;22.27;;;13.00;99.90;;;;;;5067678;28;20123;-74
2022/05/06 07:14:28;;;;;;;34.75;20.42;;;13.30;99.90;;;;;;5067304;28;20047;-74
2022/05/06 07:16:55;;;;;;;35.25;20.25;;;13.60;99.90;;;;;;5054509;28;20067;-75
2022/05/06 07:19:21;;;;;;;37.13;20.27;;;13.80;99.90;;;;;;5068407;28;20443;-74
2022/05/06 07:21:51;;;;;;;37.05;21.35;;;14.00;99.90;;;;;;5086904;28;20519;-75
2022/05/06 07:24:19;;;;;;;31.23;19.40;;;14.20;99.90;;;;;;5069811;28;20048;-75
2022/05/06 07:26:45;;;;;;;45.15;21.00;;;14.50;99.90;;;;;;5055611;28;20039;-75
2022/05/06 07:29:11;;;;;;;33.67;19.90;;;14.70;99.90;;;;;;5072761;28;20493;-74
2022/05/06 07:31:41;;;;;;;28.67;17.95;;;14.90;99.90;;;;;;5070992;28;20522;-73
2022/05/06 07:34:07;;;;;;;30.88;17.67;;;15.10;99.90;;;;;;5069562;28;20032;-71
2022/05/06 07:36:33;;;;;;;32.60;18.27;;;15.10;99.90;;;;;;5089026;28;20035;-75
2022/05/06 07:38:59;;;;;;;25.67;16.10;;;15.20;99.90;;;;;;5089270;28;20036;-75
2022/05/06 07:41:25;;;;;;;23.95;15.80;;;15.40;99.90;;;;;;5093659;28;20047;-74
2022/05/06 07:43:51;;;;;;;29.02;16.65;;;15.50;99.90;;;;;;5089882;28;20189;-74
2022/05/06 07:46:17;;;;;;;26.52;16.25;;;15.60;99.90;;;;;;5093520;28;20528;-74
2022/05/06 07:48:43;;;;;;;26.23;16.45;;;15.70;99.90;;;;;;5085960;27;20046;-74
2022/05/06 07:51:08;;;;;;;26.63;17.88;;;15.70;99.90;;;;;;5074467;28;20042;-74
2022/05/06 07:53:34;;;;;;;28.15;16.67;;;15.90;99.90;;;;;;5078352;28;20039;-74
2022/05/06 07:56:00;;;;;;;27.92;16.85;;;16.00;99.90;;;;;;5047384;28;20439;-74
2022/05/06 07:58:26;;;;;;;26.10;14.95;;;16.10;99.90;;;;;;5080631;28;20047;-82
2022/05/06 08:00:52;;;;;;;28.67;15.05;;;16.10;99.90;;;;;;5104990;28;20120;-81
2022/05/06 08:06:03;;;;;;;25.30;16.20;;;16.20;99.90;;;;;;5094482;28;20039;-82
2022/05/06 08:08:30;;;;;;;26.27;15.20;;;16.40;99.90;;;;;;5082635;28;20111;-83
2022/05/06 08:10:56;;;;;;;22.35;14.63;;;16.50;99.90;;;;;;5086595;28;20044;-83
2022/05/06 08:13:28;;;;;;;32.20;17.42;;;16.60;99.90;;;;;;5102342;28;20104;-80
2022/05/06 08:15:55;;;;;;;28.20;16.48;;;16.60;99.90;;;;;;5106943;28;20073;-82
2022/05/06 08:18:22;;;;;;;25.92;16.08;;;16.70;99.90;;;;;;5105006;28;20088;-82
2022/05/06 08:20:48;;;;;;;24.80;16.77;;;16.70;99.90;;;;;;5073556;28;20031;-81
2022/05/06 08:23:16;;;;;;;28.55;17.00;;;17.00;99.90;;;;;;5074665;28;20324;-80
2022/05/06 08:25:42;;;;;;;29.58;16.05;;;17.00;99.90;;;;;;5100392;28;20042;-80
2022/05/06 08:28:09;;;;;;;24.15;15.10;;;16.90;99.90;;;;;;5096581;28;20043;-80
2022/05/06 08:30:38;;;;;;;26.05;15.07;;;17.00;99.90;;;;;;5064171;28;20032;-80
2022/05/06 08:33:03;;;;;;;23.42;14.77;;;16.90;99.90;;;;;;5079092;28;20126;-73
2022/05/06 08:35:29;;;;;;;21.63;14.35;;;16.80;99.90;;;;;;5078068;28;20519;-73
2022/05/06 08:37:55;;;;;;;21.80;14.52;;;16.90;99.90;;;;;;5093980;28;20036;-74
2022/05/06 08:40:24;;;;;;;22.80;15.63;;;16.90;99.90;;;;;;5095186;28;20056;-73
2022/05/06 08:42:50;;;;;;;20.45;14.13;;;17.10;99.90;;;;;;5076911;28;20550;-73
2022/05/06 08:50:53;;;;;;;21.40;14.60;;;17.40;99.90;;;;;;5079132;28;20043;-78
2022/05/06 08:53:27;;;;;;;27.27;15.77;;;17.20;99.90;;;;;;5089989;28;20036;-77
2022/05/06 08:55:55;;;;;;;23.83;14.98;;;17.00;99.90;;;;;;5089811;28;20070;-77
2022/05/06 08:58:22;;;;;;;22.63;14.60;;;17.10;99.90;;;;;;5084663;28;20032;-79
2022/05/06 09:00:49;;;;;;;23.52;14.27;;;17.20;99.90;;;;;;5072126;28;20039;-79
2022/05/06 09:03:17;;;;;;;19.02;13.07;;;17.30;99.90;;;;;;5075414;28;20039;-80
2022/05/06 09:05:53;;;;;;;22.73;14.48;;;17.40;99.90;;;;;;5064485;28;20404;-80
2022/05/06 09:08:22;;;;;;;19.15;13.15;;;17.40;99.90;;;;;;5092528;28;20132;-80
2022/05/06 09:11:09;;;;;;;21.60;13.10;;;17.40;99.90;;;;;;5073275;28;20044;-80
2022/05/06 09:13:37;;;;;;;20.33;13.32;;;17.40;99.90;;;;;;5093504;28;20057;-73
2022/05/06 09:19:17;;;;;;;21.52;13.80;;;17.50;99.90;;;;;;5090429;28;20036;-74
2022/05/06 09:22:01;;;;;;;17.73;11.95;;;17.50;99.90;;;;;;5081857;28;20045;-74
2022/05/06 09:24:28;;;;;;;16.67;11.65;;;17.40;99.90;;;;;;5090193;28;20043;-74
2022/05/06 09:27:14;;;;;;;16.30;11.95;;;17.40;99.90;;;;;;5075575;28;20733;-74
2022/05/06 09:29:48;;;;;;;17.38;12.35;;;17.50;99.90;;;;;;5111432;28;20038;-74
2022/05/06 09:32:30;;;;;;;16.83;12.10;;;17.60;99.90;;;;;;5093258;28;20114;-74
2022/05/06 09:35:06;;;;;;;16.27;11.35;;;17.60;99.90;;;;;;5093810;28;20108;-73
2022/05/06 09:37:32;;;;;;;15.60;10.52;;;17.70;99.90;;;;;;5081975;28;20040;-73
2022/05/06 09:40:16;;;;;;;15.48;10.82;;;17.80;99.90;;;;;;5093994;28;20047;-73
2022/05/06 09:42:44;;;;;;;14.70;10.77;;;17.90;99.90;;;;;;5091589;28;20046;-74
2022/05/06 09:45:27;;;;;;;13.68;9.30;;;17.80;99.90;;;;;;5093494;28;20082;-73
2022/05/06 09:48:03;;;;;;;15.70;10.75;;;17.90;99.90;;;;;;5091982;28;20031;-73
2022/05/06 09:50:45;;;;;;;14.82;10.40;;;18.00;99.90;;;;;;5093415;28;20168;-73
2022/05/06 09:53:15;;;;;;;10.27;7.95;;;18.00;99.90;;;;;;5058085;28;20039;-71
2022/05/06 09:55:46;;;;;;;12.18;9.38;;;18.00;99.90;;;;;;5085074;28;20051;-71
2022/05/06 09:58:13;;;;;;;13.02;9.27;;;18.10;99.90;;;;;;5050222;28;20044;-71
2022/05/06 10:00:40;;;;;;;12.30;8.43;;;18.30;99.90;;;;;;5072318;28;20055;-71
2022/05/06 10:03:07;;;;;;;14.63;8.90;;;18.50;99.90;;;;;;5073176;28;20408;-71
2022/05/06 10:05:35;;;;;;;11.63;7.88;;;18.60;99.90;;;;;;5082896;28;20039;-71
2022/05/06 10:08:06;;;;;;;13.57;9.32;;;18.80;99.70;;;;;;5075871;28;20501;-71
2022/05/06 10:10:40;;;;;;;10.50;7.60;;;18.90;99.10;;;;;;5074234;28;20535;-70
2022/05/06 10:13:22;;;;;;;8.88;6.53;;;19.00;98.80;;;;;;5090086;28;20047;-70
2022/05/06 10:15:49;;;;;;;10.40;6.63;;;19.00;98.10;;;;;;5100814;28;20701;-70
2022/05/06 10:18:34;;;;;;;12.00;7.85;;;19.00;97.10;;;;;;5086722;28;20046;-70
2022/05/06 10:21:12;;;;;;;9.95;6.55;;;18.90;97.00;;;;;;5088086;28;20039;-70
2022/05/06 10:23:45;;;;;;;10.70;6.60;;;19.00;97.20;;;;;;5084032;28;20699;-69
2022/05/06 10:26:40;;;;;;;9.18;6.15;;;19.10;96.50;;;;;;5072232;28;20035;-70
2022/05/06 10:34:55;;;;;;;8.07;4.80;;;19.90;96.90;;;;;;5070197;28;20539;-71
2022/05/06 10:37:22;;;;;;;8.73;6.18;;;20.10;95.90;;;;;;5069317;28;20047;-70
2022/05/06 10:39:50;;;;;;;6.72;5.60;;;20.40;96.10;;;;;;5070658;28;20043;-70
2022/05/06 10:42:19;;;;;;;9.77;5.80;;;20.60;95.70;;;;;;5087262;28;20036;-71
2022/05/06 10:44:52;;;;;;;8.18;6.68;;;20.60;95.30;;;;;;5084209;28;20122;-70
2022/05/06 10:47:18;;;;;;;9.30;6.45;;;20.70;94.80;;;;;;5087406;28;20481;-70
2022/05/06 10:49:54;;;;;;;9.30;6.00;;;20.40;93.80;;;;;;5085225;28;20621;-69
2022/05/06 10:52:24;;;;;;;8.75;6.05;;;20.50;94.10;;;;;;5076288;28;20071;-70
2022/05/06 10:54:59;;;;;;;10.10;6.95;;;20.40;93.60;;;;;;5085140;28;20133;-71
2022/05/06 10:57:27;;;;;;;8.60;6.43;;;20.40;93.60;;;;;;5088030;28;20039;-71
2022/05/06 11:00:04;;;;;;;7.43;5.88;;;20.60;93.70;;;;;;5086263;28;20142;-71
2022/05/06 11:02:31;;;;;;;9.15;6.53;;;20.80;93.80;;;;;;5062164;28;20039;-71
2022/05/06 11:05:00;;;;;;;6.75;4.80;;;20.70;93.60;;;;;;5086755;28;20063;-72
2022/05/06 11:07:27;;;;;;;7.78;5.13;;;20.60;93.00;;;;;;5070493;28;20035;-72
2022/05/06 11:09:59;;;;;;;9.50;5.20;;;20.60;92.90;;;;;;5084201;28;20063;-71
2022/05/06 11:12:40;;;;;;;7.03;5.20;;;20.70;92.70;;;;;;5069756;28;20070;-71
2022/05/06 11:15:09;;;;;;;7.97;6.53;;;20.90;92.80;;;;;;5067160;28;20043;-71
2022/05/06 11:17:38;;;;;;;6.20;4.95;;;21.00;92.80;;;;;;5087596;28;20420;-72
2022/05/06 11:20:28;;;;;;;6.68;5.10;;;20.90;91.60;;;;;;5087631;28;20466;-71
2022/05/06 11:23:29;;;;;;;8.75;5.18;;;20.70;91.40;;;;;;5070386;28;20036;-72
2022/05/06 11:25:55;;;;;;;8.13;5.70;;;20.90;91.40;;;;;;5027349;28;20070;-72
2022/05/06 11:28:27;;;;;;;7.50;4.72;;;21.10;91.40;;;;;;5106279;28;20381;-72
2022/05/06 11:30:57;;;;;;;6.32;4.68;;;21.10;91.10;;;;;;5090835;28;20047;-72
2022/05/06 11:33:31;;;;;;;6.43;4.40;;;21.00;89.80;;;;;;5074505;28;20094;-71
2022/05/06 11:36:05;;;;;;;4.82;4.35;;;21.10;89.80;;;;;;5062869;28;20504;-72
2022/05/06 11:38:46;;;;;;;7.75;4.47;;;21.30;89.40;;;;;;5090123;28;20512;-74
2022/05/06 11:41:14;;;;;;;4.95;4.00;;;21.00;86.90;;;;;;5090487;28;20122;-74
2022/05/06 11:43:41;;;;;;;4.13;3.70;;;21.10;88.70;;;;;;5087383;28;20533;-72
2022/05/06 11:49:05;;;;;;;2.97;2.45;;;21.50;89.00;;;;;;5091503;28;20040;-73
2022/05/06 11:51:37;;;;;;;2.45;2.15;;;21.90;86.30;;;;;;5079210;28;20044;-73
2022/05/06 11:54:05;;;;;;;3.08;2.67;;;21.90;85.20;;;;;;5080856;28;20043;-73
2022/05/06 11:56:33;;;;;;;4.72;2.40;;;22.20;86.00;;;;;;5069134;28;20039;-73
2022/05/06 11:59:07;;;;;;;2.72;2.30;;;22.40;85.10;;;;;;5084490;28;20047;-73
2022/05/06 12:01:38;;;;;;;4.47;2.53;;;22.50;83.90;;;;;;5086275;28;20398;-73
2022/05/06 12:04:06;;;;;;;4.47;2.67;;;22.60;82.40;;;;;;5082837;28;20061;-72
2022/05/06 12:06:37;;;;;;;3.72;3.33;;;22.50;80.20;;;;;;5086709;28;20078;-73
2022/05/06 12:09:16;;;;;;;2.92;2.63;;;22.40;79.90;;;;;;5086779;28;20043;-73
2022/05/06 12:11:46;;;;;;;3.05;1.90;;;22.40;80.20;;;;;;5068303;28;20073;-72
2022/05/06 12:14:15;;;;;;;2.13;1.92;;;22.30;78.90;;;;;;5069065;28;20040;-73
2022/05/06 12:16:57;;;;;;;2.70;2.28;;;22.40;77.60;;;;;;5070730;28;20057;-73
2022/05/06 12:19:40;;;;;;;2.45;2.25;;;22.20;75.60;;;;;;5069774;28;20361;-73
2022/05/06 12:22:14;;;;;;;2.80;2.50;;;22.20;77.10;;;;;;5088348;28;20047;-73
2022/05/06 12:24:49;;;;;;;3.00;2.45;;;22.30;77.70;;;;;;5088529;28;20039;-73
2022/05/06 12:27:34;;;;;;;2.75;2.30;;;22.40;77.00;;;;;;5088269;28;20039;-73
2022/05/06 12:30:03;;;;;;;2.60;2.08;;;22.50;74.50;;;;;;5074100;28;20092;-73
2022/05/06 12:32:30;;;;;;;3.35;2.10;;;22.40;76.00;;;;;;5090061;28;20128;-73
2022/05/06 12:35:11;;;;;;;2.63;2.42;;;22.50;76.70;;;;;;5088924;28;20091;-73
2022/05/06 12:37:57;;;;;;;2.72;2.33;;;22.40;74.90;;;;;;5090223;28;20040;-73
2022/05/06 12:40:31;;;;;;;2.30;2.10;;;22.50;74.90;;;;;;5076764;28;20093;-72
2022/05/06 12:43:08;;;;;;;4.40;2.30;;;22.60;73.40;;;;;;5056576;28;20059;-73
2022/05/06 12:45:34;;;;;;;3.03;2.22;;;22.70;73.00;;;;;;5089274;28;20437;-73
2022/05/06 12:50:51;;;;;;;3.58;2.60;;;22.70;71.70;;;;;;5079215;28;20044;-72
2022/05/06 12:53:21;;;;;;;3.78;2.42;;;22.60;70.50;;;;;;5060314;28;20075;-73
2022/05/06 12:55:49;;;;;;;2.40;2.20;;;22.40;69.80;;;;;;5062864;28;20096;-73
2022/05/06 12:58:15;;;;;;;3.40;2.42;;;22.60;70.20;;;;;;5094246;28;20047;-73
2022/05/06 13:00:41;;;;;;;3.55;2.10;;;22.70;70.40;;;;;;5049819;28;20048;-73
2022/05/06 13:03:07;;;;;;;4.60;2.50;;;22.70;69.20;;;;;;5070876;28;20047;-74
2022/05/06 13:05:33;;;;;;;2.95;1.92;;;23.00;68.70;;;;;;5060072;28;20043;-74
2022/05/06 13:08:06;;;;;;;3.55;2.03;;;23.10;67.80;;;;;;5069625;28;20437;-74
2022/05/06 13:10:32;;;;;;;2.85;1.80;;;23.10;66.70;;;;;;5064047;28;20046;-74
2022/05/06 13:13:03;;;;;;;4.07;2.10;;;22.90;66.60;;;;;;5054102;28;20040;-73
2022/05/06 13:15:29;;;;;;;4.60;2.20;;;23.10;67.70;;;;;;5054490;28;20068;-75
2022/05/06 13:17:55;;;;;;;2.30;1.90;;;23.10;67.10;;;;;;5052420;28;20040;-73
2022/05/06 13:20:21;;;;;;;2.25;2.05;;;23.10;67.90;;;;;;5072195;28;20070;-73
2022/05/06 13:22:47;;;;;;;2.53;2.00;;;23.30;67.60;;;;;;5035116;28;20114;-73
2022/05/06 13:25:23;;;;;;;4.13;2.45;;;23.60;67.70;;;;;;5067220;28;20036;-74
2022/05/06 13:27:50;;;;;;;3.28;2.80;;;23.80;66.80;;;;;;5068963;28;20036;-73
2022/05/06 13:30:22;;;;;;;5.18;2.13;;;23.60;66.90;;;;;;5053741;28;20036;-73
2022/05/06 13:32:48;;;;;;;4.25;2.53;;;23.80;67.40;;;;;;5035731;28;20036;-73